Flimby, United Kingdom
Current Conditions -  °F | °C
As of 12:50 PM on Sunday 21 Dec 2014 (Local Time) from EGOM Reporting Station
Light Rain Light Rain  
Wind Chill: 37°   Ceiling: 200
Heat Index: 46°   Visibility: 0.34mi
Dew Point: 46°   Wind: 35mph
Humidity: 100%   Direction: 250°WSW
Pressure: 29.85"   Gusts: 48mph
Location:  54.69°N, 3.52°W
Report Text: EGOM 211250Z AUTO 25030G42KT 0550 -RA OVC002/// 08/08 Q1011
Loading
Personal Weather Stations






























Interactive Weather Map New forecast layout! Learn more

10-Day Weather Forecast

Advertisements
Track Severe Weather on mobile